This is the latest recevied weather packets stored in our database for station/object LIPZ. If no packets are shown the sender has not sent any weather packets the latest 10 day(s).
| Time | Temp. | Humidity | Pressure | Rain* | Wind** | Luminosity | Snow |
|---|---|---|---|---|---|---|---|
| 1777997703 | 15° C | 93% | 1013 hPa | - | - | - | - |
| 1777996804 | 15° C | 93% | 1013 hPa | - | - | - | - |
| 1777995904 | 16.11° C | 87% | 1013 hPa | - | - | - | - |
| 1777994104 | 16.11° C | 87% | 1013 hPa | - | - | - | - |
| 1777993205 | 16.11° C | 87% | 1013 hPa | - | - | - | - |
| 1777990504 | 16.11° C | 87% | 1014 hPa | - | - | - | - |
| 1777988703 | 15° C | 87% | 1014 hPa | - | - | - | - |
| 1777987805 | 15° C | 87% | 1014 hPa | - | - | - | - |
| 1777984205 | 15° C | 87% | 1014 hPa | - | - | - | - |
| 1777981503 | 15° C | 87% | 1014 hPa | - | - | - | - |
| 1777978805 | 16.11° C | 77% | 1014 hPa | - | - | - | - |
| 1777977904 | 17.22° C | 72% | 1014 hPa | - | - | - | - |
| 1777977004 | 17.22° C | 72% | 1014 hPa | - | - | - | - |
| 1777976104 | 17.22° C | 72% | 1014 hPa | - | - | - | - |
| 1777975205 | 17.22° C | 72% | 1014 hPa | - | - | - | - |
| 1777973405 | 17.22° C | 67% | 1014 hPa | - | - | - | - |
| 1777972503 | 17.22° C | 72% | 1014 hPa | - | - | - | - |
| 1777968905 | 17.78° C | 63% | 1014 hPa | - | - | - | - |
| 1777967104 | 17.22° C | 72% | 1014 hPa | - | - | - | - |
| 1777966204 | 17.22° C | 72% | 1014 hPa | - | - | - | - |
| 1777961704 | 15° C | 93% | 1013 hPa | - | - | - | - |
| 1777959904 | 13.89° C | 100% | 1013 hPa | - | - | - | - |
| 1777958104 | 13.89° C | 100% | 1013 hPa | - | - | - | - |
| 1777957204 | 13.89° C | 100% | 1013 hPa | - | - | - | - |
| 1777956303 | 15° C | 93% | 1013 hPa | - | - | - | - |
* Rain since midnight (hover to see other rain measurements)
** Current wind speed in m/s (hover to see current wind gust speed)